Time;durP1;ratioP1;P1;durP2;ratioP2;P2;SDS_P1;SDS_P2;PMS_P1;PMS_P2;Temp;Humidity;BMP_temperature;BMP_pressure;BME280_temperature;BME280_humidity;BME280_pressure;Samples;Min_cycle;Max_cycle;Signal;HPM_P1;HPM_P2
2021/01/14 00:02:04;;;;;;;0.60;0.60;;;0.40;99.90;;;;;;5071680;28;20204;-80
2021/01/14 00:04:30;;;;;;;0.20;0.20;;;0.30;99.90;;;;;;5069354;28;20211;-80
2021/01/14 00:06:57;;;;;;;0.30;0.30;;;0.30;99.90;;;;;;5070974;28;20809;-80
2021/01/14 00:09:42;;;;;;;0.60;0.60;;;0.30;99.90;;;;;;5068831;28;20224;-79
2021/01/14 00:12:08;;;;;;;0.70;0.30;;;0.30;99.90;;;;;;5070068;28;20238;-81
2021/01/14 00:14:34;;;;;;;0.30;0.30;;;0.30;99.90;;;;;;5069771;28;20185;-80
2021/01/14 00:16:59;;;;;;;0.27;0.27;;;0.30;99.90;;;;;;5070271;28;21159;-80
2021/01/14 00:19:25;;;;;;;1.17;0.80;;;0.30;99.90;;;;;;5070038;28;20269;-79
2021/01/14 00:21:51;;;;;;;0.17;0.17;;;0.20;99.90;;;;;;5069003;28;20186;-81
2021/01/14 00:24:16;;;;;;;0.33;0.33;;;0.10;99.90;;;;;;5070293;28;20193;-80
2021/01/14 00:26:42;;;;;;;1.43;0.57;;;0.20;99.90;;;;;;5068399;28;20213;-82
2021/01/14 00:29:07;;;;;;;0.37;0.20;;;0.20;99.90;;;;;;5070490;28;20269;-79
2021/01/14 00:31:34;;;;;;;0.50;0.40;;;0.20;99.90;;;;;;5070330;28;20181;-80
2021/01/14 00:34:00;;;;;;;0.30;0.30;;;0.20;99.90;;;;;;5085542;28;20189;-82
2021/01/14 00:39:28;;;;;;;1.97;0.97;;;0.20;99.90;;;;;;5069924;28;20188;-80
2021/01/14 00:41:55;;;;;;;0.97;0.40;;;0.20;99.90;;;;;;5068148;28;20209;-79
2021/01/14 00:44:21;;;;;;;0.40;0.30;;;0.20;99.90;;;;;;5069592;28;20189;-81
2021/01/14 00:46:47;;;;;;;0.50;0.40;;;0.20;99.90;;;;;;5070869;28;20574;-78
2021/01/14 00:49:12;;;;;;;0.30;0.30;;;0.30;99.90;;;;;;5069975;28;20630;-82
2021/01/14 00:51:39;;;;;;;0.47;0.43;;;0.30;99.90;;;;;;5069179;28;20185;-79
2021/01/14 00:54:06;;;;;;;0.33;0.33;;;0.20;99.90;;;;;;5068885;28;20651;-79
2021/01/14 00:56:37;;;;;;;0.20;0.20;;;0.20;99.90;;;;;;5068148;28;20206;-79
2021/01/14 00:59:06;;;;;;;0.63;0.40;;;0.20;99.90;;;;;;5070463;28;20192;-80
2021/01/14 01:01:32;;;;;;;0.20;0.20;;;0.20;99.90;;;;;;5089340;28;20259;-77
2021/01/14 01:03:58;;;;;;;0.40;0.23;;;0.20;99.90;;;;;;5072108;28;20178;-79
2021/01/14 01:06:31;;;;;;;3.23;0.33;;;0.20;99.90;;;;;;5072311;28;20236;-82
2021/01/14 01:08:57;;;;;;;0.30;0.30;;;0.20;99.90;;;;;;5089293;28;20181;-80
2021/01/14 01:11:25;;;;;;;0.50;0.50;;;0.20;99.90;;;;;;5073919;28;20221;-82
2021/01/14 01:13:51;;;;;;;0.80;0.80;;;0.20;99.90;;;;;;5071810;28;20675;-83
2021/01/14 01:16:17;;;;;;;0.30;0.30;;;0.20;99.90;;;;;;5072384;28;20292;-82
2021/01/14 01:18:42;;;;;;;0.27;0.27;;;0.20;99.90;;;;;;5072116;28;20682;-80
2021/01/14 01:21:08;;;;;;;0.20;0.20;;;0.20;99.90;;;;;;5074457;28;20213;-80
2021/01/14 01:23:34;;;;;;;0.27;0.27;;;0.20;99.90;;;;;;5072981;28;20177;-82
2021/01/14 01:25:59;;;;;;;0.20;0.20;;;0.20;99.90;;;;;;5073774;28;20197;-80
2021/01/14 01:28:25;;;;;;;2.67;0.50;;;0.20;99.90;;;;;;5071489;28;20273;-78
2021/01/14 01:30:51;;;;;;;0.87;0.87;;;0.20;99.90;;;;;;5074238;28;20205;-81
2021/01/14 01:33:16;;;;;;;0.87;0.60;;;0.20;99.90;;;;;;5072013;28;20647;-82
2021/01/14 01:35:42;;;;;;;0.20;0.20;;;0.20;99.90;;;;;;5071617;28;20240;-78
2021/01/14 01:38:07;;;;;;;0.40;0.40;;;0.30;99.90;;;;;;5071806;28;20193;-81
2021/01/14 01:40:33;;;;;;;0.47;0.37;;;0.20;99.90;;;;;;5072103;28;20213;-79
2021/01/14 01:42:59;;;;;;;0.43;0.43;;;0.20;99.90;;;;;;5071325;28;20186;-81
2021/01/14 01:45:24;;;;;;;0.60;0.60;;;0.20;99.90;;;;;;5072006;28;20771;-79
2021/01/14 01:47:50;;;;;;;0.20;0.20;;;0.20;99.90;;;;;;5073994;28;20185;-77
2021/01/14 01:50:19;;;;;;;0.20;0.20;;;0.30;99.90;;;;;;5071621;28;20212;-80
2021/01/14 01:52:45;;;;;;;2.00;0.90;;;0.30;99.90;;;;;;5072801;28;20190;-80
2021/01/14 01:55:11;;;;;;;2.30;0.97;;;0.30;99.90;;;;;;5072643;28;20756;-80
2021/01/14 01:57:37;;;;;;;0.47;0.37;;;0.30;99.90;;;;;;5072848;28;20685;-80
2021/01/14 02:00:05;;;;;;;0.30;0.30;;;0.30;99.90;;;;;;5072889;28;20228;-80
2021/01/14 02:02:30;;;;;;;3.17;0.50;;;0.40;99.90;;;;;;5072274;28;20194;-78
2021/01/14 02:04:57;;;;;;;0.30;0.30;;;0.30;99.90;;;;;;5072159;28;20193;-79
2021/01/14 02:07:34;;;;;;;0.30;0.30;;;0.40;99.90;;;;;;5071509;28;20192;-80
2021/01/14 02:10:00;;;;;;;0.57;0.27;;;0.30;99.90;;;;;;5071804;28;20209;-80
2021/01/14 02:12:35;;;;;;;0.30;0.30;;;0.30;99.90;;;;;;5070325;28;20217;-79
2021/01/14 02:15:02;;;;;;;0.73;0.63;;;0.40;99.90;;;;;;5088013;28;21148;-78
2021/01/14 02:17:28;;;;;;;0.30;0.30;;;0.30;99.90;;;;;;5070779;28;20204;-79
2021/01/14 02:19:55;;;;;;;0.37;0.37;;;0.40;99.90;;;;;;5072093;28;20216;-78
2021/01/14 02:22:33;;;;;;;0.30;0.30;;;0.30;99.90;;;;;;5072863;28;20245;-80
2021/01/14 02:25:12;;;;;;;0.30;0.30;;;0.30;99.90;;;;;;5072819;28;20208;-79
2021/01/14 02:27:39;;;;;;;0.50;0.30;;;0.40;99.90;;;;;;5065927;28;20192;-80
2021/01/14 02:30:08;;;;;;;1.63;0.60;;;0.40;99.90;;;;;;5070731;28;20193;-80
2021/01/14 02:32:33;;;;;;;0.20;0.20;;;0.40;99.90;;;;;;5073842;28;20232;-81
2021/01/14 02:34:59;;;;;;;0.33;0.30;;;0.40;99.90;;;;;;5072420;28;20186;-80
2021/01/14 02:37:24;;;;;;;2.97;0.40;;;0.40;99.90;;;;;;5072298;28;20189;-79
2021/01/14 02:39:50;;;;;;;0.40;0.40;;;0.40;99.90;;;;;;5073539;28;20270;-78
2021/01/14 02:42:16;;;;;;;0.30;0.30;;;0.40;99.90;;;;;;5072415;28;20865;-82
2021/01/14 02:44:42;;;;;;;0.20;0.20;;;0.50;99.90;;;;;;5073321;28;20197;-78
2021/01/14 02:47:11;;;;;;;0.30;0.30;;;0.40;99.90;;;;;;5072438;28;20280;-81
2021/01/14 02:49:48;;;;;;;0.90;0.30;;;0.40;99.90;;;;;;5071960;28;20237;-80
2021/01/14 02:52:14;;;;;;;0.33;0.23;;;0.40;99.90;;;;;;5072677;28;20207;-81
2021/01/14 02:54:40;;;;;;;0.40;0.37;;;0.50;99.90;;;;;;5071968;28;20193;-78
2021/01/14 02:57:08;;;;;;;0.40;0.30;;;0.50;99.90;;;;;;5072922;28;20216;-79
2021/01/14 02:59:34;;;;;;;0.30;0.30;;;0.50;99.90;;;;;;5072726;28;20193;-80
2021/01/14 03:01:59;;;;;;;0.20;0.20;;;0.50;99.90;;;;;;5073085;28;20233;-79
2021/01/14 03:04:25;;;;;;;0.40;0.40;;;0.40;99.90;;;;;;5073588;28;20221;-78
2021/01/14 03:06:51;;;;;;;3.50;0.70;;;0.50;99.90;;;;;;5072812;28;20201;-79
2021/01/14 03:09:16;;;;;;;0.50;0.40;;;0.50;99.90;;;;;;5073519;28;20193;-80
2021/01/14 03:11:42;;;;;;;0.50;0.50;;;0.50;99.90;;;;;;5073906;28;20250;-79
2021/01/14 03:14:07;;;;;;;0.30;0.30;;;0.50;99.90;;;;;;5071753;28;20177;-79
2021/01/14 03:16:38;;;;;;;0.43;0.43;;;0.50;99.90;;;;;;5073305;28;20213;-79
2021/01/14 03:19:04;;;;;;;0.23;0.20;;;0.60;99.90;;;;;;5072083;28;20185;-79
2021/01/14 03:21:29;;;;;;;0.80;0.63;;;0.60;99.90;;;;;;5072225;28;20313;-80
2021/01/14 03:23:55;;;;;;;0.30;0.30;;;0.60;99.90;;;;;;5071333;28;20189;-78
2021/01/14 03:26:21;;;;;;;0.30;0.30;;;0.60;99.90;;;;;;5072399;28;21237;-78
2021/01/14 03:28:48;;;;;;;0.73;0.73;;;0.60;99.90;;;;;;5071914;28;20233;-79
2021/01/14 03:31:15;;;;;;;0.40;0.40;;;0.60;99.90;;;;;;5071412;28;20270;-80
2021/01/14 03:33:41;;;;;;;1.10;0.30;;;0.60;99.90;;;;;;5074191;28;20276;-79
2021/01/14 03:36:08;;;;;;;0.53;0.50;;;0.60;99.90;;;;;;5072175;28;20244;-80
2021/01/14 03:38:37;;;;;;;0.30;0.30;;;0.60;99.90;;;;;;5074374;28;20442;-80
2021/01/14 03:41:13;;;;;;;0.23;0.23;;;0.60;99.90;;;;;;5073726;28;20201;-80
2021/01/14 03:43:38;;;;;;;0.57;0.57;;;0.60;99.90;;;;;;5073491;28;20268;-81
2021/01/14 03:46:09;;;;;;;4.93;0.70;;;0.60;99.90;;;;;;5071997;28;20245;-80
2021/01/14 03:48:41;;;;;;;0.47;0.47;;;0.60;99.90;;;;;;5072406;28;20661;-81
2021/01/14 03:51:26;;;;;;;0.40;0.40;;;0.60;99.90;;;;;;5089276;28;20201;-80
2021/01/14 03:53:52;;;;;;;0.40;0.40;;;0.60;99.90;;;;;;5073778;28;20201;-81
2021/01/14 03:56:18;;;;;;;2.40;0.30;;;0.70;99.90;;;;;;5073076;28;20216;-81
2021/01/14 03:58:44;;;;;;;0.47;0.47;;;0.70;99.90;;;;;;5088566;28;20217;-79
2021/01/14 04:01:10;;;;;;;0.40;0.33;;;0.60;99.90;;;;;;5073470;28;20214;-80
2021/01/14 04:03:39;;;;;;;0.40;0.40;;;0.70;99.90;;;;;;5073038;28;20284;-79
2021/01/14 04:06:05;;;;;;;1.03;0.93;;;0.70;99.90;;;;;;5080524;28;20215;-80
2021/01/14 04:08:30;;;;;;;0.47;0.40;;;0.70;99.90;;;;;;5073481;28;20193;-79
2021/01/14 04:10:56;;;;;;;0.40;0.40;;;0.60;99.90;;;;;;5073159;28;20243;-79
2021/01/14 04:13:22;;;;;;;2.17;0.70;;;0.60;99.90;;;;;;5071255;28;20519;-79
2021/01/14 04:15:47;;;;;;;0.83;0.50;;;0.60;99.90;;;;;;5070864;28;20236;-79
2021/01/14 04:18:13;;;;;;;0.50;0.40;;;0.60;99.90;;;;;;5071536;28;20251;-80
2021/01/14 04:20:38;;;;;;;0.70;0.70;;;0.70;99.90;;;;;;5071662;28;20209;-81
2021/01/14 04:23:05;;;;;;;0.70;0.70;;;0.70;99.90;;;;;;5071963;28;20212;-79
2021/01/14 04:25:30;;;;;;;0.30;0.30;;;0.70;99.90;;;;;;5071215;28;20283;-77
2021/01/14 04:28:00;;;;;;;0.70;0.70;;;0.80;99.90;;;;;;5071345;28;20264;-80
2021/01/14 04:30:27;;;;;;;0.33;0.33;;;0.80;99.90;;;;;;5073885;28;20192;-81
2021/01/14 04:33:12;;;;;;;0.67;0.57;;;0.80;99.90;;;;;;5071724;28;20193;-80
2021/01/14 04:35:49;;;;;;;2.57;0.40;;;0.70;99.90;;;;;;5074473;28;20213;-82
2021/01/14 04:38:18;;;;;;;0.63;0.63;;;0.80;99.90;;;;;;5075788;28;20208;-79
2021/01/14 04:40:45;;;;;;;0.73;0.70;;;0.70;99.90;;;;;;5077021;28;20209;-81
2021/01/14 04:43:12;;;;;;;0.90;0.70;;;0.70;99.90;;;;;;5075714;28;20253;-79
2021/01/14 04:45:42;;;;;;;1.00;0.90;;;0.70;99.90;;;;;;5075292;28;20226;-82
2021/01/14 04:48:12;;;;;;;0.77;0.50;;;0.70;99.90;;;;;;5076669;28;20174;-81
2021/01/14 04:50:38;;;;;;;0.63;0.63;;;0.70;99.90;;;;;;5075580;28;20220;-80
2021/01/14 04:53:05;;;;;;;1.10;1.00;;;0.70;99.90;;;;;;5075299;28;20189;-78
2021/01/14 04:55:42;;;;;;;1.23;0.70;;;0.70;99.90;;;;;;5075344;28;20205;-78
2021/01/14 04:58:18;;;;;;;0.83;0.60;;;0.70;99.90;;;;;;5073954;22;20787;-73
2021/01/14 05:00:49;;;;;;;1.40;1.30;;;0.70;99.90;;;;;;5044323;28;21268;-73
2021/01/14 05:03:21;;;;;;;1.20;0.70;;;0.70;99.90;;;;;;5045083;28;20529;-73
2021/01/14 05:05:48;;;;;;;1.23;1.07;;;0.80;99.90;;;;;;5044540;28;20277;-74
2021/01/14 05:08:15;;;;;;;1.10;1.10;;;0.70;99.90;;;;;;5039918;28;20727;-73
2021/01/14 05:10:43;;;;;;;1.43;0.80;;;0.80;99.90;;;;;;5024776;28;20206;-73
2021/01/14 05:13:09;;;;;;;2.13;0.83;;;0.80;99.90;;;;;;5029975;28;20193;-73
2021/01/14 05:15:35;;;;;;;0.70;0.70;;;0.70;99.90;;;;;;5023353;28;20241;-73
2021/01/14 05:18:01;;;;;;;1.07;0.97;;;0.80;99.90;;;;;;5042601;28;20542;-73
2021/01/14 05:20:27;;;;;;;0.70;0.70;;;0.80;99.90;;;;;;5044196;28;20236;-74
2021/01/14 05:23:04;;;;;;;0.83;0.83;;;0.70;99.90;;;;;;5037025;28;20186;-73
2021/01/14 05:25:31;;;;;;;1.03;0.77;;;0.70;99.90;;;;;;5026142;28;20683;-73
2021/01/14 05:28:13;;;;;;;0.80;0.80;;;0.80;99.90;;;;;;5042281;28;20202;-73
2021/01/14 05:30:40;;;;;;;0.50;0.50;;;0.80;99.90;;;;;;5044623;28;20189;-73
2021/01/14 05:33:20;;;;;;;0.50;0.50;;;0.80;99.90;;;;;;5033861;28;20207;-73
2021/01/14 05:35:48;;;;;;;1.27;1.00;;;0.80;99.90;;;;;;5044210;28;20193;-73
2021/01/14 05:38:21;;;;;;;1.60;0.87;;;0.70;99.90;;;;;;5037086;28;20203;-73
2021/01/14 05:41:10;;;;;;;1.70;1.10;;;0.80;99.90;;;;;;5030427;28;20214;-73
2021/01/14 05:43:34;;;;;;;0.70;0.70;;;0.80;99.90;;;;;;5038185;28;20216;-73
2021/01/14 05:46:17;;;;;;;1.13;0.80;;;0.70;99.90;;;;;;5043390;28;20182;-73
2021/01/14 05:48:44;;;;;;;0.93;0.80;;;0.80;99.90;;;;;;5043941;28;20545;-73
2021/01/14 05:51:21;;;;;;;1.20;0.80;;;0.80;99.90;;;;;;5038313;28;20179;-72
2021/01/14 05:54:02;;;;;;;0.77;0.63;;;0.80;99.90;;;;;;5032950;28;20182;-72
2021/01/14 05:56:43;;;;;;;0.90;0.80;;;0.80;99.90;;;;;;5031194;28;20213;-73
2021/01/14 05:59:12;;;;;;;0.93;0.70;;;0.90;99.90;;;;;;5039203;28;20272;-72
2021/01/14 06:02:11;;;;;;;1.23;1.03;;;0.80;99.90;;;;;;5031624;28;20588;-73
2021/01/14 06:04:37;;;;;;;0.70;0.70;;;0.90;99.90;;;;;;5013687;28;20290;-72
2021/01/14 06:07:04;;;;;;;0.60;0.60;;;1.00;99.90;;;;;;5033021;28;20319;-73
2021/01/14 06:09:40;;;;;;;2.27;1.33;;;0.90;99.90;;;;;;5036693;28;20185;-73
2021/01/14 06:12:11;;;;;;;1.97;1.17;;;0.80;99.90;;;;;;5040087;28;21239;-72
2021/01/14 06:14:37;;;;;;;1.10;0.90;;;0.80;99.90;;;;;;5036444;28;20178;-73
2021/01/14 06:17:07;;;;;;;1.50;1.00;;;0.80;99.90;;;;;;5033409;28;20212;-73
2021/01/14 06:19:33;;;;;;;1.10;0.90;;;0.90;99.90;;;;;;5033622;28;20556;-73
2021/01/14 06:22:00;;;;;;;0.73;0.73;;;0.90;99.90;;;;;;5040124;28;20641;-72
2021/01/14 06:24:30;;;;;;;0.53;0.53;;;0.90;99.90;;;;;;5027444;28;20204;-73
2021/01/14 06:27:09;;;;;;;2.80;1.00;;;1.00;99.90;;;;;;5034117;28;20228;-72
2021/01/14 06:29:44;;;;;;;0.70;0.70;;;0.90;99.90;;;;;;5032522;28;20209;-73
2021/01/14 06:32:18;;;;;;;0.60;0.60;;;0.90;99.90;;;;;;5032180;28;20181;-72
2021/01/14 06:34:51;;;;;;;1.03;0.93;;;0.90;99.90;;;;;;5031196;28;20219;-72
2021/01/14 06:37:22;;;;;;;1.27;1.17;;;1.00;99.90;;;;;;5034266;28;20620;-72
2021/01/14 06:39:50;;;;;;;0.70;0.70;;;0.90;99.90;;;;;;5031580;28;21031;-73
2021/01/14 06:42:30;;;;;;;3.13;1.10;;;0.90;99.90;;;;;;5033031;28;20210;-73
2021/01/14 06:45:00;;;;;;;2.03;0.93;;;0.90;99.90;;;;;;5033127;28;20753;-72
2021/01/14 06:47:44;;;;;;;1.20;1.10;;;0.80;99.90;;;;;;5028943;28;20694;-72
2021/01/14 06:50:16;;;;;;;1.03;0.97;;;0.80;99.90;;;;;;5029093;28;20205;-73
2021/01/14 06:53:12;;;;;;;1.20;1.13;;;0.90;99.90;;;;;;5031874;28;20270;-72
2021/01/14 06:55:39;;;;;;;1.13;1.03;;;0.90;99.90;;;;;;5038047;28;20187;-72
2021/01/14 06:58:15;;;;;;;0.93;0.93;;;0.90;99.90;;;;;;5031130;28;20646;-72
2021/01/14 07:00:48;;;;;;;1.00;0.90;;;0.90;99.90;;;;;;5034544;28;20217;-72
2021/01/14 07:03:14;;;;;;;0.80;0.80;;;0.90;99.90;;;;;;5036499;28;20205;-72
2021/01/14 07:05:54;;;;;;;1.40;1.30;;;0.90;99.90;;;;;;5028585;28;20256;-73
2021/01/14 07:08:40;;;;;;;1.27;1.10;;;0.90;99.90;;;;;;5054530;28;20202;-73
2021/01/14 07:11:15;;;;;;;1.23;0.60;;;0.90;99.90;;;;;;5033696;28;20273;-72
2021/01/14 07:13:40;;;;;;;0.93;0.90;;;0.90;99.90;;;;;;5031136;28;20186;-72
2021/01/14 07:16:07;;;;;;;1.57;1.40;;;0.90;99.90;;;;;;5023808;28;20552;-73
2021/01/14 07:18:34;;;;;;;0.77;0.73;;;0.90;99.90;;;;;;5021623;28;20345;-73
2021/01/14 07:21:22;;;;;;;2.03;1.17;;;0.80;99.90;;;;;;5029494;28;20210;-72
2021/01/14 07:23:55;;;;;;;2.40;1.40;;;0.80;99.90;;;;;;5047018;28;20189;-73
2021/01/14 07:26:22;;;;;;;1.40;1.30;;;0.90;99.90;;;;;;5033079;28;20245;-73
2021/01/14 07:28:49;;;;;;;1.20;0.90;;;0.90;99.90;;;;;;5033015;28;20675;-73
2021/01/14 07:31:24;;;;;;;1.20;1.10;;;0.90;99.90;;;;;;5035224;28;20691;-72
2021/01/14 07:33:50;;;;;;;2.43;2.10;;;0.90;99.90;;;;;;5027050;28;20183;-73
2021/01/14 07:36:17;;;;;;;2.57;1.80;;;0.90;99.90;;;;;;5032256;28;20186;-72
2021/01/14 07:38:48;;;;;;;2.87;1.80;;;0.90;99.90;;;;;;5032766;28;20199;-72
2021/01/14 07:41:14;;;;;;;2.23;1.90;;;0.90;99.90;;;;;;5023202;28;20195;-73
2021/01/14 07:43:41;;;;;;;2.47;2.27;;;1.00;99.90;;;;;;5021595;28;20201;-73
2021/01/14 07:46:24;;;;;;;3.77;3.00;;;0.90;99.90;;;;;;5030871;28;20201;-73
2021/01/14 07:48:53;;;;;;;1.40;1.30;;;0.90;99.90;;;;;;5025062;28;20198;-73
2021/01/14 07:51:20;;;;;;;2.47;1.00;;;1.00;99.90;;;;;;5021714;28;20191;-72
2021/01/14 07:54:08;;;;;;;2.37;1.47;;;1.00;99.90;;;;;;5022099;28;20233;-72
2021/01/14 07:56:51;;;;;;;1.27;1.07;;;1.10;99.90;;;;;;5022940;28;20248;-72
2021/01/14 07:59:28;;;;;;;1.27;1.17;;;1.10;99.90;;;;;;5027085;28;20198;-72
2021/01/14 08:02:03;;;;;;;1.13;1.03;;;1.20;99.90;;;;;;5040023;28;20214;-73
2021/01/14 08:04:29;;;;;;;2.00;1.80;;;1.10;99.90;;;;;;5022499;28;20198;-72
2021/01/14 08:06:54;;;;;;;3.03;2.27;;;1.10;99.90;;;;;;5021255;28;20183;-73
2021/01/14 08:09:21;;;;;;;3.67;2.37;;;1.00;99.90;;;;;;5026551;28;20237;-72
2021/01/14 08:11:46;;;;;;;1.90;1.73;;;1.10;99.90;;;;;;5044736;28;20217;-72
2021/01/14 08:14:22;;;;;;;3.40;2.10;;;1.10;99.90;;;;;;5025388;28;20732;-75
2021/01/14 08:16:57;;;;;;;1.73;1.27;;;1.10;99.90;;;;;;5029869;28;20189;-75
2021/01/14 08:19:29;;;;;;;3.77;1.57;;;1.10;99.90;;;;;;5043161;28;20560;-74
2021/01/14 08:21:58;;;;;;;3.10;1.97;;;1.10;99.90;;;;;;5033247;28;20195;-74
2021/01/14 08:24:41;;;;;;;4.83;2.20;;;1.10;99.90;;;;;;5029571;28;20186;-74
2021/01/14 08:27:12;;;;;;;5.20;3.50;;;1.20;99.90;;;;;;5042316;28;20648;-74
2021/01/14 08:29:50;;;;;;;2.90;1.70;;;1.10;99.90;;;;;;5040337;28;20551;-75
2021/01/14 08:32:34;;;;;;;2.30;1.83;;;1.20;99.90;;;;;;5025973;28;20209;-75
2021/01/14 08:35:26;;;;;;;1.03;0.97;;;1.30;99.90;;;;;;5025479;28;20183;-73
2021/01/14 08:37:58;;;;;;;1.30;1.10;;;1.30;99.90;;;;;;5032202;28;20296;-74
2021/01/14 08:40:23;;;;;;;1.53;1.27;;;1.30;99.90;;;;;;5032773;28;20590;-74
2021/01/14 08:43:12;;;;;;;1.43;1.33;;;1.30;99.90;;;;;;5041502;28;20174;-74
2021/01/14 08:45:52;;;;;;;2.37;1.27;;;1.40;99.90;;;;;;5026856;28;20266;-74
2021/01/14 08:48:25;;;;;;;3.80;2.70;;;1.40;99.90;;;;;;5026323;28;20211;-74
2021/01/14 08:50:53;;;;;;;4.23;2.50;;;1.40;99.90;;;;;;5033177;28;20228;-75
2021/01/14 08:53:19;;;;;;;4.13;2.40;;;1.40;99.90;;;;;;5026702;28;20600;-74
2021/01/14 08:55:58;;;;;;;4.63;3.47;;;1.30;99.90;;;;;;5031355;28;20268;-74
2021/01/14 08:58:44;;;;;;;5.17;3.60;;;1.30;99.90;;;;;;5032862;28;20275;-75
2021/01/14 09:01:18;;;;;;;9.40;5.57;;;1.40;99.90;;;;;;5037945;28;20363;-75
2021/01/14 09:03:47;;;;;;;2.60;2.37;;;1.30;99.90;;;;;;5039872;28;20678;-74
2021/01/14 09:06:27;;;;;;;4.43;3.33;;;1.40;99.90;;;;;;5037656;28;20183;-73
2021/01/14 09:08:53;;;;;;;3.63;3.20;;;1.40;99.90;;;;;;5035143;28;20202;-77
2021/01/14 09:11:30;;;;;;;2.40;2.20;;;1.40;99.90;;;;;;5036959;28;20652;-77
2021/01/14 09:14:05;;;;;;;3.83;1.70;;;1.40;99.90;;;;;;5037022;28;20574;-78
2021/01/14 09:16:31;;;;;;;1.93;1.30;;;1.40;99.90;;;;;;5036992;28;20213;-78
2021/01/14 09:18:57;;;;;;;4.67;2.73;;;1.40;99.90;;;;;;5039380;28;20207;-78
2021/01/14 09:21:23;;;;;;;2.03;1.57;;;1.40;99.90;;;;;;5052968;28;20213;-78
2021/01/14 09:23:48;;;;;;;2.73;1.97;;;1.50;99.90;;;;;;5035657;28;20193;-77
2021/01/14 09:26:20;;;;;;;3.47;2.17;;;1.50;99.90;;;;;;5037967;28;20255;-77
2021/01/14 09:28:52;;;;;;;1.33;1.20;;;1.50;99.90;;;;;;5036502;28;20229;-77
2021/01/14 09:31:20;;;;;;;2.20;2.00;;;1.50;99.90;;;;;;5037390;28;20332;-77
2021/01/14 09:33:48;;;;;;;2.40;1.00;;;1.60;99.90;;;;;;5028219;28;21058;-77
2021/01/14 09:36:16;;;;;;;3.87;2.27;;;1.60;99.90;;;;;;5052090;28;20182;-77
2021/01/14 09:38:51;;;;;;;2.67;1.50;;;1.60;99.90;;;;;;5036800;28;20213;-78
2021/01/14 09:41:33;;;;;;;3.50;2.13;;;1.60;99.90;;;;;;5036239;28;20263;-78
2021/01/14 09:44:10;;;;;;;2.17;1.57;;;1.70;99.90;;;;;;5027220;28;20187;-78
2021/01/14 09:46:38;;;;;;;2.03;1.33;;;1.70;99.90;;;;;;5035216;28;20182;-78
2021/01/14 09:49:05;;;;;;;4.00;1.60;;;1.70;99.90;;;;;;5034781;28;20206;-77
2021/01/14 09:51:32;;;;;;;2.67;2.40;;;1.70;99.90;;;;;;5035426;28;20186;-78
2021/01/14 09:53:57;;;;;;;1.60;1.50;;;1.80;99.90;;;;;;5037197;28;20194;-78
2021/01/14 09:56:25;;;;;;;2.23;1.33;;;1.80;99.90;;;;;;5034274;28;20183;-78
2021/01/14 09:58:54;;;;;;;2.17;1.63;;;1.80;99.90;;;;;;5036328;28;20238;-78
2021/01/14 10:01:25;;;;;;;2.50;1.20;;;1.80;99.90;;;;;;5034402;28;20217;-77
2021/01/14 10:04:08;;;;;;;2.97;1.80;;;1.80;99.90;;;;;;5034001;28;20277;-78
2021/01/14 10:06:39;;;;;;;1.77;1.67;;;1.80;99.90;;;;;;5052259;28;20223;-77
2021/01/14 10:09:05;;;;;;;2.23;2.03;;;1.90;99.90;;;;;;5034280;28;20221;-78
2021/01/14 10:11:32;;;;;;;4.07;2.17;;;1.90;99.90;;;;;;5037372;28;20199;-78
2021/01/14 10:13:58;;;;;;;2.33;1.83;;;1.90;99.90;;;;;;5036050;28;20182;-78
2021/01/14 10:16:24;;;;;;;3.83;2.47;;;2.00;99.90;;;;;;5035814;28;20182;-78
2021/01/14 10:18:50;;;;;;;3.40;2.03;;;2.00;99.90;;;;;;5033150;28;20336;-78
2021/01/14 10:21:27;;;;;;;2.50;1.77;;;2.00;99.90;;;;;;5036988;28;20998;-78
2021/01/14 10:23:53;;;;;;;2.30;2.10;;;2.10;99.90;;;;;;5036347;28;20265;-78
2021/01/14 10:26:26;;;;;;;3.00;1.87;;;2.20;99.90;;;;;;5036206;28;20325;-78
2021/01/14 10:28:51;;;;;;;2.33;1.70;;;2.20;99.90;;;;;;5034306;28;20717;-77
2021/01/14 10:31:33;;;;;;;2.60;2.23;;;2.20;99.90;;;;;;5034071;28;20197;-78
2021/01/14 10:33:59;;;;;;;4.13;3.73;;;2.20;99.90;;;;;;5034092;28;20313;-77
2021/01/14 10:36:24;;;;;;;2.67;2.40;;;2.10;99.90;;;;;;5035195;28;20265;-77
2021/01/14 10:38:50;;;;;;;2.90;1.90;;;2.20;99.90;;;;;;5036573;28;20207;-78
2021/01/14 10:41:22;;;;;;;2.53;2.27;;;2.20;99.90;;;;;;5050809;28;20214;-78
2021/01/14 10:43:48;;;;;;;3.97;3.10;;;2.30;99.90;;;;;;5036289;28;20178;-77
2021/01/14 10:46:23;;;;;;;4.17;2.37;;;2.20;99.90;;;;;;5034903;28;20829;-78
2021/01/14 10:48:48;;;;;;;3.07;1.80;;;2.30;99.90;;;;;;5034655;28;20687;-78
2021/01/14 10:51:32;;;;;;;2.63;2.07;;;2.30;99.90;;;;;;5033132;28;20247;-78
2021/01/14 10:53:57;;;;;;;3.97;3.23;;;2.30;99.90;;;;;;5034349;28;20183;-78
2021/01/14 10:56:24;;;;;;;2.20;1.83;;;2.30;99.90;;;;;;5034283;28;20891;-78
2021/01/14 10:59:02;;;;;;;3.10;2.03;;;2.20;99.90;;;;;;5033239;28;20218;-78
2021/01/14 11:01:27;;;;;;;2.30;1.93;;;2.20;99.90;;;;;;5032437;28;20206;-77
2021/01/14 11:03:53;;;;;;;3.80;2.17;;;2.10;99.90;;;;;;5035254;28;20182;-78
2021/01/14 11:06:34;;;;;;;6.13;2.90;;;2.00;99.90;;;;;;5032887;28;20852;-77
2021/01/14 11:09:07;;;;;;;6.70;3.23;;;2.10;99.90;;;;;;5033528;28;20202;-78
2021/01/14 11:11:34;;;;;;;3.23;2.80;;;2.10;99.90;;;;;;5034319;28;20590;-77
2021/01/14 11:14:00;;;;;;;5.60;3.30;;;2.00;99.90;;;;;;5031044;28;20208;-77
2021/01/14 11:16:26;;;;;;;3.27;2.67;;;2.10;99.90;;;;;;5049200;28;20199;-78
2021/01/14 11:18:57;;;;;;;4.63;2.77;;;2.10;99.90;;;;;;5048375;28;20684;-78
2021/01/14 11:21:29;;;;;;;5.43;2.83;;;2.10;99.90;;;;;;5034136;28;20201;-77
2021/01/14 11:23:59;;;;;;;3.53;3.10;;;2.00;99.90;;;;;;5033439;28;20548;-77
2021/01/14 11:26:25;;;;;;;5.27;2.43;;;2.10;99.90;;;;;;5031451;28;20201;-77
2021/01/14 11:28:51;;;;;;;4.97;2.97;;;2.20;99.90;;;;;;5031734;28;20489;-79
2021/01/14 11:31:20;;;;;;;3.00;1.80;;;2.10;99.90;;;;;;5031078;28;20218;-78
2021/01/14 11:33:46;;;;;;;4.70;3.00;;;2.10;99.90;;;;;;5031851;28;20186;-77
2021/01/14 11:36:13;;;;;;;4.93;3.07;;;2.20;99.90;;;;;;5048150;28;20193;-77
2021/01/14 11:38:41;;;;;;;3.67;2.63;;;2.20;99.90;;;;;;5048859;28;20213;-77
2021/01/14 11:41:07;;;;;;;3.83;2.30;;;2.20;99.90;;;;;;5027804;28;20210;-78
2021/01/14 11:43:33;;;;;;;4.03;3.17;;;2.20;99.90;;;;;;5032583;28;20307;-78
2021/01/14 11:45:59;;;;;;;3.27;1.87;;;2.20;99.90;;;;;;5032509;28;20205;-78
2021/01/14 11:48:25;;;;;;;3.87;2.53;;;2.20;99.90;;;;;;5033466;28;20259;-79
2021/01/14 11:50:51;;;;;;;3.00;2.13;;;2.30;99.90;;;;;;5033580;28;20187;-79
2021/01/14 11:53:17;;;;;;;2.03;1.57;;;2.30;99.90;;;;;;5024584;28;20186;-79
2021/01/14 11:55:42;;;;;;;2.33;1.60;;;2.30;99.90;;;;;;5032060;28;20213;-80
2021/01/14 11:58:08;;;;;;;3.10;2.23;;;2.20;99.90;;;;;;5034729;28;20317;-78
2021/01/14 12:00:34;;;;;;;1.90;1.70;;;2.10;99.90;;;;;;5032872;28;20198;-77
2021/01/14 12:03:01;;;;;;;3.40;2.00;;;2.20;99.90;;;;;;5033864;28;20238;-78
2021/01/14 12:05:28;;;;;;;4.70;2.63;;;2.20;99.90;;;;;;5032239;28;20277;-78
2021/01/14 12:07:53;;;;;;;3.13;2.20;;;2.30;99.90;;;;;;5031983;28;20284;-78
2021/01/14 12:10:19;;;;;;;2.63;2.13;;;2.30;99.90;;;;;;5034050;28;20270;-78
2021/01/14 12:12:45;;;;;;;1.57;1.40;;;2.30;99.90;;;;;;5030952;28;20198;-77
2021/01/14 12:15:10;;;;;;;3.20;1.70;;;2.20;99.90;;;;;;5032921;28;20657;-78
2021/01/14 12:17:36;;;;;;;2.83;1.70;;;2.20;99.90;;;;;;5024172;28;20318;-78
2021/01/14 12:20:02;;;;;;;1.87;1.60;;;2.20;99.90;;;;;;5024492;28;20579;-78
2021/01/14 12:22:28;;;;;;;2.80;2.57;;;2.10;99.90;;;;;;5033287;28;21086;-77
2021/01/14 12:24:54;;;;;;;3.33;2.70;;;2.00;99.90;;;;;;5034658;28;20197;-77
2021/01/14 12:27:20;;;;;;;2.47;1.97;;;2.00;99.90;;;;;;5034950;28;20242;-77
2021/01/14 12:29:47;;;;;;;2.47;1.87;;;2.10;99.90;;;;;;5029554;28;20264;-78
2021/01/14 12:32:13;;;;;;;3.70;2.00;;;2.00;99.90;;;;;;5033555;28;20265;-78
2021/01/14 12:34:38;;;;;;;2.77;2.40;;;2.00;99.90;;;;;;5033543;28;20189;-78
2021/01/14 12:37:04;;;;;;;2.47;2.27;;;2.00;99.90;;;;;;5031636;28;20618;-78
2021/01/14 12:39:30;;;;;;;4.17;2.87;;;1.90;99.90;;;;;;5034341;28;20270;-77
2021/01/14 12:41:55;;;;;;;2.50;1.87;;;1.90;99.90;;;;;;5033643;28;20222;-78
2021/01/14 12:44:21;;;;;;;2.97;2.37;;;1.90;99.90;;;;;;5034392;28;20718;-78
2021/01/14 12:46:48;;;;;;;4.37;2.80;;;1.90;99.90;;;;;;5032499;28;20186;-78
2021/01/14 12:49:16;;;;;;;4.97;2.83;;;1.90;99.90;;;;;;5031573;28;20206;-78
2021/01/14 12:51:42;;;;;;;2.10;1.73;;;1.90;99.90;;;;;;5033462;28;20179;-77
2021/01/14 12:54:08;;;;;;;4.60;2.77;;;2.00;99.90;;;;;;5033495;28;20182;-77
2021/01/14 12:56:35;;;;;;;3.50;2.50;;;2.10;99.90;;;;;;5032783;28;20239;-78
2021/01/14 12:59:01;;;;;;;4.27;2.27;;;2.10;99.90;;;;;;5038059;28;21362;-77
2021/01/14 13:01:34;;;;;;;4.77;2.20;;;2.10;99.90;;;;;;5038212;28;20260;-78
2021/01/14 13:04:01;;;;;;;3.20;2.30;;;2.00;99.90;;;;;;5036649;28;20186;-78
2021/01/14 13:06:28;;;;;;;5.87;3.03;;;2.10;99.90;;;;;;5035084;28;20183;-78
2021/01/14 13:08:56;;;;;;;5.37;3.20;;;2.10;99.90;;;;;;5039370;28;20297;-78
2021/01/14 13:11:23;;;;;;;4.60;3.30;;;2.10;99.90;;;;;;5034383;28;20190;-77
2021/01/14 13:13:49;;;;;;;4.40;3.07;;;2.30;99.90;;;;;;5035290;28;20889;-77